createdAt,value
2019-03-08T00:00:02.706Z,7.60
2019-03-08T00:02:31.266Z,7.60
2019-03-08T00:04:59.804Z,7.50
2019-03-08T00:07:28.416Z,7.60
2019-03-08T00:09:57.087Z,7.60
2019-03-08T00:12:25.614Z,7.50
2019-03-08T00:14:54.266Z,7.50
2019-03-08T00:17:22.799Z,7.60
2019-03-08T00:19:51.376Z,7.60
2019-03-08T00:22:19.890Z,7.60
2019-03-08T00:24:48.463Z,7.50
2019-03-08T00:27:16.994Z,7.60
2019-03-08T00:29:45.635Z,7.60
2019-03-08T00:32:14.630Z,7.60
2019-03-08T00:34:43.270Z,7.70
2019-03-08T00:37:11.810Z,7.70
2019-03-08T00:39:40.411Z,7.70
2019-03-08T00:42:09.210Z,7.70
2019-03-08T00:44:37.851Z,7.70
2019-03-08T00:47:06.451Z,7.80
2019-03-08T00:49:35.469Z,7.80
2019-03-08T00:52:04.318Z,7.80
2019-03-08T00:54:32.875Z,7.80
2019-03-08T00:57:01.419Z,7.80
2019-03-08T00:59:30.010Z,7.80
2019-03-08T01:01:58.522Z,7.80
2019-03-08T01:04:27.154Z,7.80
2019-03-08T01:06:55.762Z,7.80
2019-03-08T01:09:24.394Z,7.80
2019-03-08T01:11:52.932Z,7.80
2019-03-08T01:14:21.571Z,7.80
2019-03-08T01:16:50.112Z,7.80
2019-03-08T01:19:18.713Z,7.80
2019-03-08T01:21:47.327Z,7.80
2019-03-08T01:24:15.941Z,7.80
2019-03-08T01:26:44.893Z,7.70
2019-03-08T01:29:13.503Z,7.80
2019-03-08T01:31:42.104Z,7.80
2019-03-08T01:34:10.952Z,7.70
2019-03-08T01:36:39.834Z,7.70
2019-03-08T01:39:08.705Z,7.70
2019-03-08T01:41:37.360Z,7.70
2019-03-08T01:44:06.035Z,7.70
2019-03-08T01:46:34.675Z,7.70
2019-03-08T01:49:03.283Z,7.60
2019-03-08T01:51:31.845Z,7.60
2019-03-08T01:54:00.378Z,7.60
2019-03-08T01:56:28.938Z,7.60
2019-03-08T01:58:57.479Z,7.60
2019-03-08T02:01:26.046Z,7.60
2019-03-08T02:03:55.061Z,7.50
2019-03-08T02:06:23.818Z,7.50
2019-03-08T02:08:52.346Z,7.50
2019-03-08T02:11:20.918Z,7.50
2019-03-08T02:13:49.471Z,7.40
2019-03-08T02:16:18.030Z,7.50
2019-03-08T02:18:46.662Z,7.50
2019-03-08T02:21:15.521Z,7.50
2019-03-08T02:23:44.139Z,7.40
2019-03-08T02:26:12.991Z,7.30
2019-03-08T02:28:41.518Z,7.40
2019-03-08T02:31:10.491Z,7.40
2019-03-08T02:33:39.205Z,7.30
2019-03-08T02:36:08.136Z,7.40
2019-03-08T02:38:36.674Z,7.30
2019-03-08T02:41:05.603Z,7.30
2019-03-08T02:43:34.135Z,7.30
2019-03-08T02:46:02.763Z,7.30
2019-03-08T02:48:31.655Z,7.30
2019-03-08T02:51:00.424Z,7.30
2019-03-08T02:53:28.952Z,7.30
2019-03-08T02:55:57.803Z,7.30
2019-03-08T02:58:26.347Z,7.30
2019-03-08T03:00:54.888Z,7.30
2019-03-08T03:03:23.447Z,7.30
2019-03-08T03:05:52.085Z,7.30
2019-03-08T03:08:20.644Z,7.30
2019-03-08T03:10:49.242Z,7.30
2019-03-08T03:13:17.829Z,7.30
2019-03-08T03:15:46.377Z,7.30
2019-03-08T03:18:15.242Z,7.20
2019-03-08T03:20:43.774Z,7.30
2019-03-08T03:23:12.346Z,7.30
2019-03-08T03:25:40.955Z,7.30
2019-03-08T03:28:09.873Z,7.30
2019-03-08T03:30:38.399Z,7.30
2019-03-08T03:33:07.026Z,7.20
2019-03-08T03:35:35.559Z,7.30
2019-03-08T03:38:04.189Z,7.30
2019-03-08T03:40:33.618Z,7.30
2019-03-08T03:43:02.174Z,7.30
2019-03-08T03:45:30.729Z,7.30
2019-03-08T03:47:59.311Z,7.20
2019-03-08T03:50:27.847Z,7.20
2019-03-08T03:52:56.389Z,7.20
2019-03-08T03:55:25.021Z,7.20
2019-03-08T03:57:53.628Z,7.20
2019-03-08T04:00:23.525Z,7.20
2019-03-08T04:02:52.435Z,7.20
2019-03-08T04:05:21.136Z,7.20
2019-03-08T04:07:49.678Z,7.20
2019-03-08T04:10:19.127Z,7.10
2019-03-08T04:12:47.745Z,7.10
2019-03-08T04:15:17.947Z,7.10
2019-03-08T04:17:46.747Z,7.20
2019-03-08T04:20:17.532Z,7.10
2019-03-08T04:22:46.536Z,7.10
2019-03-08T04:25:15.434Z,7.10
2019-03-08T04:27:44.312Z,7.00
2019-03-08T04:30:15.415Z,7.10
2019-03-08T04:32:44.024Z,7.00
2019-03-08T04:35:12.695Z,7.00
2019-03-08T04:37:41.346Z,7.00
2019-03-08T04:40:12.327Z,7.00
2019-03-08T04:42:40.828Z,7.00
2019-03-08T04:45:12.476Z,7.00
2019-03-08T04:47:41.103Z,7.10
2019-03-08T04:50:13.755Z,7.10
2019-03-08T04:52:42.364Z,7.10
2019-03-08T04:55:19.154Z,7.10
2019-03-08T04:57:47.877Z,7.10
2019-03-08T05:00:18.137Z,7.10
2019-03-08T05:02:46.678Z,7.10
2019-03-08T05:05:15.375Z,7.20
2019-03-08T05:07:43.983Z,7.20
2019-03-08T05:10:14.796Z,7.20
2019-03-08T05:12:43.757Z,7.20
2019-03-08T05:15:12.765Z,7.20
2019-03-08T05:17:41.346Z,7.20
2019-03-08T05:20:10.643Z,7.20
2019-03-08T05:22:39.211Z,7.30
2019-03-08T05:25:10.355Z,7.30
2019-03-08T05:27:38.916Z,7.30
2019-03-08T05:30:15.627Z,7.30
2019-03-08T05:32:44.168Z,7.30
2019-03-08T05:35:14.352Z,7.30
2019-03-08T05:37:43.856Z,7.40
2019-03-08T05:40:13.634Z,7.40
2019-03-08T05:42:42.327Z,7.40
2019-03-08T05:45:12.406Z,7.40
2019-03-08T05:47:40.958Z,7.40
2019-03-08T05:50:10.751Z,7.40
2019-03-08T05:52:39.683Z,7.40
2019-03-08T05:55:12.267Z,7.40
2019-03-08T05:57:40.921Z,7.40
2019-03-08T06:00:18.327Z,7.40
2019-03-08T06:02:46.877Z,7.40
2019-03-08T06:05:15.422Z,7.40
2019-03-08T06:07:43.966Z,7.40
2019-03-08T06:10:18.204Z,7.50
2019-03-08T06:12:46.777Z,7.50
2019-03-08T06:15:15.313Z,7.50
2019-03-08T06:17:43.872Z,7.50
2019-03-08T06:20:12.783Z,7.40
2019-03-08T06:22:41.356Z,7.40
2019-03-08T06:25:09.960Z,7.40
2019-03-08T06:27:38.544Z,7.40
2019-03-08T06:30:09.816Z,7.40
2019-03-08T06:32:38.444Z,7.40
2019-03-08T06:35:07.819Z,7.40
2019-03-08T06:37:36.388Z,7.40
2019-03-08T06:40:07.522Z,7.40
2019-03-08T06:42:36.087Z,7.40
2019-03-08T06:45:07.018Z,7.40
2019-03-08T06:47:35.589Z,7.40
2019-03-08T06:50:06.927Z,7.40
2019-03-08T06:52:35.428Z,7.40
2019-03-08T06:55:06.350Z,7.30
2019-03-08T06:57:34.919Z,7.40
2019-03-08T07:00:05.981Z,7.50
2019-03-08T07:02:34.863Z,7.50
2019-03-08T07:05:04.214Z,7.50
2019-03-08T07:07:32.774Z,7.50
2019-03-08T07:10:01.319Z,7.50
2019-03-08T07:12:29.875Z,7.60
2019-03-08T07:14:58.410Z,7.60
2019-03-08T07:17:26.979Z,7.60
2019-03-08T07:20:09.188Z,7.70
2019-03-08T07:22:48.055Z,7.70
2019-03-08T07:25:34.697Z,7.70
2019-03-08T07:28:07.682Z,7.70
2019-03-08T07:30:46.642Z,7.70
2019-03-08T07:33:25.542Z,7.80
2019-03-08T07:35:55.922Z,7.80
2019-03-08T07:38:26.136Z,7.80
2019-03-08T07:41:08.608Z,7.80
2019-03-08T07:43:38.798Z,7.90
2019-03-08T07:46:14.872Z,7.90
2019-03-08T07:48:45.070Z,7.90
2019-03-08T07:51:21.011Z,8.00
2019-03-08T07:54:06.291Z,8.10
2019-03-08T07:56:36.463Z,8.20
2019-03-08T07:59:18.428Z,8.20
2019-03-08T08:01:48.621Z,8.20
2019-03-08T08:04:36.835Z,8.30
2019-03-08T08:07:10.155Z,8.30
2019-03-08T08:09:40.362Z,8.30
2019-03-08T08:12:16.419Z,8.30
2019-03-08T08:14:46.737Z,8.30
2019-03-08T08:17:28.523Z,8.40
2019-03-08T08:20:16.572Z,8.40
2019-03-08T08:22:52.569Z,8.40
2019-03-08T08:25:25.543Z,8.30
2019-03-08T08:28:11.062Z,8.40
2019-03-08T08:30:50.366Z,8.40
2019-03-08T08:33:23.490Z,8.40
2019-03-08T08:36:02.454Z,8.30
2019-03-08T08:38:35.618Z,8.20
2019-03-08T08:41:21.840Z,8.20
2019-03-08T08:43:54.726Z,8.20
2019-03-08T08:46:43.388Z,8.20
2019-03-08T08:49:13.599Z,8.10
2019-03-08T08:51:43.782Z,8.00
2019-03-08T08:54:16.711Z,8.10
2019-03-08T08:56:52.615Z,8.00
2019-03-08T08:59:22.831Z,7.90
2019-03-08T09:01:59.014Z,7.90
2019-03-08T09:04:29.235Z,7.90
2019-03-08T09:06:59.414Z,7.90
2019-03-08T09:09:32.041Z,8.00
2019-03-08T09:12:11.487Z,8.00
2019-03-08T09:14:44.942Z,8.00
2019-03-08T09:17:33.251Z,8.00
2019-03-08T09:20:03.455Z,8.00
2019-03-08T09:22:33.639Z,8.00
2019-03-08T09:25:09.827Z,8.00
2019-03-08T09:27:40.004Z,8.00
2019-03-08T09:30:13.821Z,7.90
2019-03-08T09:32:43.997Z,7.80
2019-03-08T09:35:14.659Z,7.90
2019-03-08T09:37:48.156Z,7.90
2019-03-08T09:40:35.471Z,8.00
2019-03-08T09:43:08.404Z,8.00
2019-03-08T09:45:38.615Z,8.00
2019-03-08T09:48:25.325Z,8.00
2019-03-08T09:50:58.468Z,8.00
2019-03-08T09:53:31.438Z,8.00
2019-03-08T09:56:13.886Z,8.00
2019-03-08T09:59:02.963Z,8.00
2019-03-08T10:01:42.298Z,7.90
2019-03-08T10:04:12.481Z,7.80
2019-03-08T10:06:51.906Z,7.80
2019-03-08T10:09:27.685Z,7.90
2019-03-08T10:11:57.902Z,7.80
2019-03-08T10:14:31.367Z,7.70
2019-03-08T10:17:07.689Z,7.70
2019-03-08T10:19:40.638Z,7.70
2019-03-08T10:22:19.888Z,7.70
2019-03-08T10:25:01.943Z,7.70
2019-03-08T10:27:48.676Z,7.70
2019-03-08T10:30:27.942Z,7.60
2019-03-08T10:33:10.343Z,7.80
2019-03-08T10:35:40.514Z,8.00
2019-03-08T10:38:10.723Z,8.10
2019-03-08T10:40:40.907Z,8.30
2019-03-08T10:43:20.050Z,8.40
2019-03-08T10:46:15.234Z,8.60
2019-03-08T10:48:46.631Z,8.90
2019-03-08T10:51:19.406Z,8.90
2019-03-08T10:53:49.615Z,9.00
2019-03-08T10:56:19.785Z,9.30
2019-03-08T10:58:56.105Z,9.70
2019-03-08T11:01:32.411Z,10.00
2019-03-08T11:04:02.611Z,10.30
2019-03-08T11:06:32.793Z,9.90
2019-03-08T11:09:09.175Z,9.70
2019-03-08T11:11:51.766Z,9.90
2019-03-08T11:14:40.064Z,9.80
2019-03-08T11:17:19.041Z,9.70
2019-03-08T11:20:06.050Z,9.50
2019-03-08T11:22:44.975Z,9.50
2019-03-08T11:25:18.300Z,9.40
2019-03-08T11:27:48.778Z,9.30
2019-03-08T11:30:28.299Z,9.50
2019-03-08T11:32:58.492Z,9.70
2019-03-08T11:35:28.686Z,9.70
2019-03-08T11:37:59.292Z,9.60
2019-03-08T11:40:32.499Z,9.40
2019-03-08T11:43:02.680Z,9.50
2019-03-08T11:45:35.933Z,9.30
2019-03-08T11:48:06.179Z,9.50
2019-03-08T11:50:36.382Z,9.40
2019-03-08T11:53:15.579Z,9.10
2019-03-08T11:55:48.266Z,9.20
2019-03-08T11:58:18.446Z,9.40
2019-03-08T12:00:53.156Z,9.40
2019-03-08T12:03:35.267Z,9.30
2019-03-08T12:06:24.211Z,9.40
2019-03-08T12:09:00.680Z,9.50
2019-03-08T12:11:30.868Z,9.70
2019-03-08T12:14:13.730Z,9.60
2019-03-08T12:17:00.187Z,9.90
2019-03-08T12:19:46.679Z,9.70
2019-03-08T12:22:22.587Z,10.00
2019-03-08T12:25:11.497Z,10.50
2019-03-08T12:27:44.561Z,10.60
2019-03-08T12:30:24.134Z,10.30
2019-03-08T12:32:54.510Z,10.20
2019-03-08T12:35:24.787Z,10.10
2019-03-08T12:38:10.006Z,10.20
2019-03-08T12:40:40.616Z,10.10
2019-03-08T12:43:23.422Z,10.30
2019-03-08T12:45:56.650Z,10.80
2019-03-08T12:48:42.075Z,11.20
2019-03-08T12:51:18.038Z,10.80
2019-03-08T12:54:04.515Z,11.00
2019-03-08T12:56:50.056Z,11.00
2019-03-08T12:59:35.595Z,10.50
2019-03-08T13:02:24.558Z,11.10
2019-03-08T13:05:07.062Z,11.60
2019-03-08T13:07:49.199Z,11.90
2019-03-08T13:10:17.827Z,12.00
2019-03-08T13:12:46.599Z,11.90
2019-03-08T13:15:16.016Z,12.10
2019-03-08T13:17:44.591Z,12.30
2019-03-08T13:20:17.781Z,12.40
2019-03-08T13:22:47.312Z,12.20
2019-03-08T13:25:15.929Z,12.00
2019-03-08T13:27:44.874Z,11.90
2019-03-08T13:30:16.429Z,12.10
2019-03-08T13:32:45.315Z,11.90
2019-03-08T13:35:14.495Z,12.00
2019-03-08T13:37:43.131Z,11.70
2019-03-08T13:40:14.512Z,11.60
2019-03-08T13:42:43.075Z,11.90
2019-03-08T13:45:21.790Z,11.60
2019-03-08T13:47:50.358Z,11.90
2019-03-08T13:50:19.046Z,11.90
2019-03-08T13:52:47.930Z,12.20
2019-03-08T13:55:17.504Z,12.50
2019-03-08T13:57:46.077Z,12.60
2019-03-08T14:00:19.684Z,12.80
2019-03-08T14:02:48.295Z,12.90
2019-03-08T14:05:16.835Z,13.00
2019-03-08T14:07:45.473Z,12.90
2019-03-08T14:10:19.191Z,12.50
2019-03-08T14:12:47.771Z,12.60
2019-03-08T14:15:17.386Z,12.60
2019-03-08T14:17:45.987Z,12.20
2019-03-08T14:20:20.082Z,11.80
2019-03-08T14:22:48.687Z,11.60
2019-03-08T14:25:17.226Z,11.20
2019-03-08T14:27:45.767Z,11.40
2019-03-08T14:30:17.737Z,11.50
2019-03-08T14:32:46.475Z,11.50
2019-03-08T14:35:15.471Z,11.70
2019-03-08T14:37:44.021Z,11.70
2019-03-08T14:40:17.218Z,11.40
2019-03-08T14:42:48.304Z,11.20
2019-03-08T14:45:18.722Z,11.50
2019-03-08T14:47:47.258Z,11.50
2019-03-08T14:50:15.822Z,11.70
2019-03-08T14:52:44.381Z,11.80
2019-03-08T14:55:14.666Z,11.80
2019-03-08T14:57:43.216Z,11.80
2019-03-08T15:00:14.832Z,11.60
2019-03-08T15:02:47.086Z,11.50
2019-03-08T15:05:15.454Z,11.40
2019-03-08T15:07:44.430Z,11.10
2019-03-08T15:10:18.358Z,11.00
2019-03-08T15:12:48.866Z,11.20
2019-03-08T15:15:17.779Z,11.20
2019-03-08T15:17:49.615Z,11.30
2019-03-08T15:20:18.522Z,11.30
2019-03-08T15:22:47.590Z,11.20
2019-03-08T15:25:16.892Z,11.10
2019-03-08T15:27:45.574Z,11.00
2019-03-08T15:30:18.939Z,11.00
2019-03-08T15:32:47.547Z,10.80
2019-03-08T15:35:17.130Z,10.70
2019-03-08T15:37:45.848Z,10.60
2019-03-08T15:40:22.058Z,10.80
2019-03-08T15:42:50.869Z,10.90
2019-03-08T15:45:19.878Z,10.80
2019-03-08T15:47:48.760Z,10.90
2019-03-08T15:50:21.604Z,10.80
2019-03-08T15:52:51.472Z,10.70
2019-03-08T15:55:20.123Z,10.70
2019-03-08T15:57:48.763Z,10.60
2019-03-08T16:00:24.285Z,10.50
2019-03-08T16:02:54.656Z,10.40
2019-03-08T16:05:23.942Z,10.40
2019-03-08T16:07:53.248Z,10.30
2019-03-08T16:10:24.217Z,10.40
2019-03-08T16:12:52.954Z,10.40
2019-03-08T16:15:21.638Z,10.40
2019-03-08T16:17:50.310Z,10.30
2019-03-08T16:20:22.646Z,10.30
2019-03-08T16:22:51.215Z,10.20
2019-03-08T16:25:19.816Z,10.20
2019-03-08T16:27:48.399Z,10.20
2019-03-08T16:30:21.299Z,10.20
2019-03-08T16:32:54.323Z,10.10
2019-03-08T16:35:22.955Z,10.10
2019-03-08T16:38:07.956Z,10.00
2019-03-08T16:40:46.673Z,10.00
2019-03-08T16:43:19.596Z,9.90
2019-03-08T16:45:58.199Z,9.80
2019-03-08T16:48:30.895Z,9.70
2019-03-08T16:51:03.659Z,9.70
2019-03-08T16:53:49.005Z,9.70
2019-03-08T16:56:28.579Z,9.70
2019-03-08T16:58:58.784Z,9.60
2019-03-08T17:01:31.987Z,9.60
2019-03-08T17:04:08.258Z,9.50
2019-03-08T17:06:55.078Z,9.50
2019-03-08T17:09:31.195Z,9.40
2019-03-08T17:12:07.564Z,9.40
2019-03-08T17:14:50.065Z,9.40
2019-03-08T17:17:20.246Z,9.30
2019-03-08T17:20:06.802Z,9.30
2019-03-08T17:22:52.026Z,9.20
2019-03-08T17:25:25.471Z,9.20
2019-03-08T17:28:01.374Z,9.10
2019-03-08T17:30:34.503Z,9.10
2019-03-08T17:33:04.670Z,9.10
2019-03-08T17:35:40.503Z,9.00
2019-03-08T17:38:16.270Z,9.00
2019-03-08T17:41:01.247Z,9.00
2019-03-08T17:43:31.435Z,8.90
2019-03-08T17:46:10.628Z,9.00
2019-03-08T17:48:46.543Z,9.00
2019-03-08T17:51:28.836Z,8.90
2019-03-08T17:54:11.100Z,8.80
2019-03-08T17:56:56.376Z,8.90
2019-03-08T17:59:29.082Z,8.80
2019-03-08T18:02:08.513Z,8.80
2019-03-08T18:04:55.150Z,8.90
2019-03-08T18:07:25.355Z,8.90
2019-03-08T18:09:55.540Z,8.70
2019-03-08T18:12:32.092Z,8.70
2019-03-08T18:15:02.466Z,8.70
2019-03-08T18:17:32.775Z,8.70
2019-03-08T18:20:08.564Z,8.70
2019-03-08T18:22:38.764Z,8.70
2019-03-08T18:25:24.053Z,8.60
2019-03-08T18:28:00.030Z,8.60
2019-03-08T18:30:32.957Z,8.60
2019-03-08T18:33:06.094Z,8.60
2019-03-08T18:35:52.647Z,8.60
2019-03-08T18:38:31.923Z,8.60
2019-03-08T18:41:11.297Z,8.60
2019-03-08T18:43:41.509Z,8.50
2019-03-08T18:46:27.858Z,8.60
2019-03-08T18:49:10.491Z,8.60
2019-03-08T18:51:46.406Z,8.50
2019-03-08T18:54:31.970Z,8.50
2019-03-08T18:57:20.178Z,8.50
2019-03-08T18:59:56.284Z,8.50
2019-03-08T19:02:26.493Z,8.40
2019-03-08T19:04:59.594Z,8.40
2019-03-08T19:07:29.806Z,8.40
2019-03-08T19:10:05.684Z,8.40
2019-03-08T19:12:44.905Z,8.40
2019-03-08T19:15:31.791Z,8.40
2019-03-08T19:18:02.005Z,8.40
2019-03-08T19:20:35.106Z,8.30
2019-03-08T19:23:14.282Z,8.30
2019-03-08T19:25:44.531Z,8.40
2019-03-08T19:28:31.511Z,8.40
2019-03-08T19:31:04.202Z,8.40
2019-03-08T19:33:34.413Z,8.40
2019-03-08T19:36:07.570Z,8.40
2019-03-08T19:38:37.766Z,8.30
2019-03-08T19:41:23.082Z,8.40
2019-03-08T19:44:08.448Z,8.30
2019-03-08T19:46:48.163Z,8.30
2019-03-08T19:49:18.390Z,8.40
2019-03-08T19:51:48.658Z,8.30
2019-03-08T19:54:22.143Z,8.30
2019-03-08T19:57:01.896Z,8.30
2019-03-08T19:59:50.480Z,8.40
2019-03-08T20:02:23.620Z,8.40
2019-03-08T20:04:54.064Z,8.40
2019-03-08T20:07:40.686Z,8.40
2019-03-08T20:10:20.867Z,8.30
2019-03-08T20:12:53.771Z,8.30
2019-03-08T20:15:23.987Z,8.30
2019-03-08T20:17:56.909Z,8.30
2019-03-08T20:20:27.111Z,8.30
2019-03-08T20:22:57.496Z,8.40
2019-03-08T20:25:36.474Z,8.40
2019-03-08T20:28:23.157Z,8.40
2019-03-08T20:31:05.971Z,8.40
2019-03-08T20:33:39.400Z,8.40
2019-03-08T20:36:15.555Z,8.40
2019-03-08T20:38:50.358Z,8.30
2019-03-08T20:41:20.582Z,8.40
2019-03-08T20:43:56.643Z,8.30
2019-03-08T20:46:29.302Z,8.30
2019-03-08T20:48:57.836Z,8.20
2019-03-08T20:51:26.413Z,8.30
2019-03-08T20:53:54.987Z,8.30
2019-03-08T20:56:23.565Z,8.20
2019-03-08T20:58:52.105Z,8.20
2019-03-08T21:01:20.695Z,8.30
2019-03-08T21:03:49.234Z,8.30
2019-03-08T21:06:17.791Z,8.20
2019-03-08T21:08:46.345Z,8.30
2019-03-08T21:11:14.955Z,8.30
2019-03-08T21:13:43.496Z,8.20
2019-03-08T21:16:12.179Z,8.20
2019-03-08T21:18:40.767Z,8.20
2019-03-08T21:21:09.375Z,8.20
2019-03-08T21:23:37.959Z,8.20
2019-03-08T21:26:06.498Z,8.20
2019-03-08T21:28:35.077Z,8.10
2019-03-08T21:31:03.620Z,8.10
2019-03-08T21:33:32.585Z,8.00
2019-03-08T21:36:01.129Z,8.00
2019-03-08T21:38:29.906Z,7.90
2019-03-08T21:40:58.482Z,7.80
2019-03-08T21:43:27.113Z,8.00
2019-03-08T21:45:55.694Z,7.90
2019-03-08T21:48:24.231Z,7.90
2019-03-08T21:50:52.771Z,7.90
2019-03-08T21:53:21.354Z,7.90
2019-03-08T21:55:49.885Z,7.90
2019-03-08T21:58:18.458Z,7.90
2019-03-08T22:00:47.069Z,7.90
2019-03-08T22:03:15.663Z,7.80
2019-03-08T22:05:44.198Z,7.80
2019-03-08T22:08:17.287Z,7.60
2019-03-08T22:10:53.853Z,7.70
2019-03-08T22:13:22.739Z,7.70
2019-03-08T22:15:51.320Z,7.50
2019-03-08T22:18:20.207Z,7.60
2019-03-08T22:20:48.986Z,7.50
2019-03-08T22:23:17.531Z,7.60
2019-03-08T22:25:46.098Z,7.60
2019-03-08T22:28:14.634Z,7.40
2019-03-08T22:30:43.218Z,7.50
2019-03-08T22:33:11.754Z,7.60
2019-03-08T22:35:40.412Z,7.60
2019-03-08T22:38:09.156Z,7.50
2019-03-08T22:40:37.750Z,7.40
2019-03-08T22:43:06.352Z,7.60
2019-03-08T22:45:35.219Z,7.40
2019-03-08T22:48:05.226Z,7.40
2019-03-08T22:50:33.815Z,7.50
2019-03-08T22:53:03.905Z,7.50
2019-03-08T22:55:32.475Z,7.50
2019-03-08T22:58:01.019Z,7.70
2019-03-08T23:00:55.155Z,7.80
2019-03-08T23:03:24.635Z,7.70
2019-03-08T23:05:53.251Z,7.60
2019-03-08T23:08:21.824Z,7.80
2019-03-08T23:10:50.359Z,7.80
2019-03-08T23:13:19.006Z,7.80
2019-03-08T23:15:47.549Z,7.70
2019-03-08T23:18:16.537Z,7.70
2019-03-08T23:20:45.036Z,7.70
2019-03-08T23:23:13.815Z,7.70
2019-03-08T23:25:42.349Z,7.70
2019-03-08T23:28:31.047Z,7.80
2019-03-08T23:31:17.261Z,7.80
2019-03-08T23:33:45.835Z,7.80
2019-03-08T23:36:14.379Z,7.80
2019-03-08T23:38:42.955Z,7.70
2019-03-08T23:41:11.603Z,7.70
2019-03-08T23:43:40.194Z,7.60
2019-03-08T23:46:08.737Z,7.60
2019-03-08T23:48:37.663Z,7.70
2019-03-08T23:51:06.515Z,7.70
2019-03-08T23:53:35.403Z,7.70
2019-03-08T23:56:04.156Z,7.80
2019-03-08T23:58:32.736Z,7.70
